McClellan, California
Current Conditions -  °F | °C
As of 7:15 PM on Saturday 20 Dec 2014 (Local Time) from KMCC Reporting Station
Haze Haze  
Wind Chill: 55°   Ceiling: 3600
Heat Index: 55°   Visibility: 5mi
Dew Point: 54°   Wind: 7mph
Humidity: 94%   Direction: 120°ESE
Pressure: 30.25"   Gusts: NA
Location:  38.6632°N, 121.383°W
Report Text: KMCC 210315Z AUTO 12006KT 5SM BR FEW029 BKN036 OVC048 13/12 A3025 RMK AO2
Loading
Personal Weather Stations






























Interactive Weather Map New forecast layout! Learn more

10-Day Weather Forecast

Advertisements
Track Severe Weather on mobile